KJKA

Jack Edwards Airport

Gulf Shores, Alabama, USA
METAR KJKA 190835Z AUTO 00000KT 10SM CLR 24/23 A2991 RMK AO2 T02360230
Observed Flight Rules
Sep-19 @ 08:35 UTC (30 minutes ago) Visual Flight Rules
Visibility Clouds
10 miles
  • Clear skies
Temperatures Readings
Current 24°C / 75°F
Dewpoint 23°C / 73°F
Humidity 94%
Altimeter 29.91" Hg
Pressure 1013 hPa
Elevation 5
METAR KJKA 190835Z AUTO 00000KT 10SM CLR 24/23 A2991 RMK AO2 T02360230
Observed Flight Rules
Sep-19 @ 08:35 UTC
(30 minutes ago)
VFR
Clouds
  • Clear skies
Temperature Dewpoint
24°C / 75°F 23°C / 73°F
Humidity Altimeter Pressure
94% 29.91" Hg 1013 hPa